createdAt,value
2023-12-17T00:00:02.955Z,4.92
2023-12-17T00:01:02.966Z,4.99
2023-12-17T00:02:02.981Z,4.98
2023-12-17T00:03:17.614Z,4.87
2023-12-17T00:04:04.191Z,4.99
2023-12-17T00:05:03.055Z,4.96
2023-12-17T00:06:03.127Z,5.07
2023-12-17T00:07:03.044Z,5.12
2023-12-17T00:08:03.044Z,5.19
2023-12-17T00:09:03.153Z,5.28
2023-12-17T00:10:03.081Z,5.33
2023-12-17T00:11:03.051Z,5.46
2023-12-17T00:12:03.073Z,5.54
2023-12-17T00:13:03.069Z,5.60
2023-12-17T00:14:03.067Z,5.63
2023-12-17T00:15:03.101Z,5.67
2023-12-17T00:16:03.069Z,5.70
2023-12-17T00:17:03.065Z,5.78
2023-12-17T00:18:03.257Z,5.86
2023-12-17T00:19:03.241Z,5.86
2023-12-17T00:20:03.200Z,5.87
2023-12-17T00:21:03.233Z,5.73
2023-12-17T00:22:03.244Z,5.66
2023-12-17T00:23:03.276Z,5.61
2023-12-17T00:24:03.387Z,5.59
2023-12-17T00:25:03.433Z,5.61
2023-12-17T00:26:03.458Z,5.69
2023-12-17T00:27:03.514Z,5.45
2023-12-17T00:28:03.556Z,5.28
2023-12-17T00:29:03.578Z,5.09
2023-12-17T00:30:03.676Z,5.19
2023-12-17T00:31:03.670Z,4.79
2023-12-17T00:32:03.677Z,4.56
2023-12-17T00:33:03.999Z,4.58
2023-12-17T00:34:03.982Z,4.70
2023-12-17T00:35:03.812Z,4.50
2023-12-17T00:36:03.992Z,4.39
2023-12-17T00:37:03.958Z,4.17
2023-12-17T00:38:04.013Z,4.07
2023-12-17T00:39:04.144Z,4.03
2023-12-17T00:40:04.144Z,4.00
2023-12-17T00:41:04.129Z,3.78
2023-12-17T00:42:04.192Z,3.71
2023-12-17T00:43:04.176Z,3.64
2023-12-17T00:44:04.230Z,3.59
2023-12-17T00:45:04.355Z,3.71
2023-12-17T00:46:04.377Z,3.82
2023-12-17T00:48:11.841Z,3.53
2023-12-17T00:49:12.466Z,3.59
2023-12-17T00:50:11.809Z,3.65
2023-12-17T00:51:11.882Z,3.92
2023-12-17T00:52:11.824Z,3.99
2023-12-17T00:53:11.831Z,4.14
2023-12-17T00:54:11.865Z,3.76
2023-12-17T00:55:11.848Z,3.89
2023-12-17T00:56:11.829Z,3.78
2023-12-17T00:57:11.866Z,3.90
2023-12-17T00:58:11.833Z,3.90
2023-12-17T00:59:11.844Z,3.78
2023-12-17T01:00:11.842Z,3.79
2023-12-17T01:01:11.877Z,3.83
2023-12-17T01:02:11.841Z,3.54
2023-12-17T01:03:11.958Z,3.74
2023-12-17T01:04:11.880Z,3.61
2023-12-17T01:05:11.868Z,3.96
2023-12-17T01:06:11.884Z,3.50
2023-12-17T01:07:11.870Z,3.90
2023-12-17T01:08:11.869Z,3.90
2023-12-17T01:09:11.873Z,3.89
2023-12-17T01:10:11.879Z,3.96
2023-12-17T01:11:11.859Z,3.85
2023-12-17T01:12:11.898Z,3.55
2023-12-17T01:13:11.876Z,3.31
2023-12-17T01:14:11.895Z,3.34
2023-12-17T01:15:11.916Z,3.58
2023-12-17T01:16:11.877Z,3.64
2023-12-17T01:17:11.900Z,3.59
2023-12-17T01:18:12.029Z,3.61
2023-12-17T01:19:11.954Z,3.57
2023-12-17T01:20:11.871Z,3.51
2023-12-17T01:21:11.909Z,3.62
2023-12-17T01:22:11.899Z,3.51
2023-12-17T01:23:11.923Z,3.62
2023-12-17T01:24:11.946Z,3.79
2023-12-17T01:25:11.887Z,3.83
2023-12-17T01:26:11.926Z,3.95
2023-12-17T01:27:11.915Z,3.99
2023-12-17T01:28:11.903Z,4.24
2023-12-17T01:29:11.936Z,4.33
2023-12-17T01:30:12.015Z,4.46
2023-12-17T01:31:11.988Z,4.41
2023-12-17T01:32:11.935Z,4.27
2023-12-17T01:33:11.999Z,4.36
2023-12-17T01:34:12.031Z,4.20
2023-12-17T01:35:11.921Z,3.85
2023-12-17T01:36:12.011Z,4.10
2023-12-17T01:37:11.905Z,4.05
2023-12-17T01:38:11.943Z,4.20
2023-12-17T01:39:12.004Z,4.26
2023-12-17T01:40:11.984Z,4.32
2023-12-17T01:41:12.056Z,4.16
2023-12-17T01:42:12.110Z,4.00
2023-12-17T01:43:12.096Z,4.09
2023-12-17T01:44:12.150Z,3.83
2023-12-17T01:45:12.208Z,3.89
2023-12-17T01:46:12.245Z,3.99
2023-12-17T01:47:12.274Z,3.96
2023-12-17T01:48:12.385Z,4.17
2023-12-17T01:49:12.512Z,3.93
2023-12-17T01:50:12.368Z,4.26
2023-12-17T01:51:12.459Z,4.24
2023-12-17T01:52:12.411Z,4.44
2023-12-17T01:53:12.452Z,4.57
2023-12-17T01:54:12.518Z,4.65
2023-12-17T01:55:12.513Z,4.54
2023-12-17T01:56:12.584Z,4.61
2023-12-17T01:57:12.721Z,4.64
2023-12-17T01:58:12.695Z,4.81
2023-12-17T01:59:12.778Z,4.79
2023-12-17T02:00:12.897Z,4.92
2023-12-17T02:01:12.899Z,4.88
2023-12-17T02:02:12.944Z,5.03
2023-12-17T02:03:13.071Z,5.09
2023-12-17T02:04:13.044Z,5.22
2023-12-17T02:05:13.031Z,5.29
2023-12-17T02:06:36.864Z,5.26
2023-12-17T02:07:13.063Z,5.33
2023-12-17T02:08:13.134Z,5.35
2023-12-17T02:09:13.323Z,5.35
2023-12-17T02:10:13.076Z,5.33
2023-12-17T02:11:13.091Z,5.35
2023-12-17T02:12:13.163Z,5.39
2023-12-17T02:13:13.098Z,5.43
2023-12-17T02:14:13.118Z,5.43
2023-12-17T02:15:13.092Z,5.49
2023-12-17T02:16:13.102Z,5.54
2023-12-17T02:17:13.121Z,5.52
2023-12-17T02:18:13.252Z,5.52
2023-12-17T02:19:13.192Z,5.49
2023-12-17T02:20:13.140Z,5.45
2023-12-17T02:21:13.135Z,5.35
2023-12-17T02:22:13.128Z,5.11
2023-12-17T02:23:13.114Z,4.99
2023-12-17T02:24:13.115Z,4.98
2023-12-17T02:25:13.137Z,4.74
2023-12-17T02:26:13.134Z,4.94
2023-12-17T02:27:13.132Z,5.05
2023-12-17T02:28:13.129Z,5.14
2023-12-17T02:29:13.127Z,5.11
2023-12-17T02:30:13.218Z,4.81
2023-12-17T02:31:13.163Z,4.91
2023-12-17T02:32:13.126Z,4.95
2023-12-17T02:33:13.263Z,4.99
2023-12-17T02:34:13.242Z,4.65
2023-12-17T02:35:13.154Z,3.97
2023-12-17T02:36:13.148Z,3.76
2023-12-17T02:37:13.155Z,3.92
2023-12-17T02:38:13.137Z,4.24
2023-12-17T02:39:13.206Z,4.40
2023-12-17T02:40:13.183Z,4.47
2023-12-17T02:41:13.198Z,4.63
2023-12-17T02:42:13.243Z,4.78
2023-12-17T02:43:13.165Z,4.74
2023-12-17T02:44:13.194Z,4.82
2023-12-17T02:45:13.227Z,4.87
2023-12-17T02:46:13.168Z,4.85
2023-12-17T02:47:13.162Z,4.96
2023-12-17T02:48:13.360Z,5.08
2023-12-17T02:49:13.236Z,5.11
2023-12-17T02:50:13.160Z,5.22
2023-12-17T02:51:13.171Z,5.25
2023-12-17T02:52:13.190Z,5.32
2023-12-17T02:53:13.159Z,5.35
2023-12-17T02:54:13.186Z,5.33
2023-12-17T02:55:13.190Z,5.40
2023-12-17T02:56:13.173Z,5.45
2023-12-17T02:57:13.236Z,5.42
2023-12-17T02:58:13.173Z,5.40
2023-12-17T02:59:13.179Z,5.46
2023-12-17T03:00:13.314Z,5.47
2023-12-17T03:01:13.245Z,5.52
2023-12-17T03:02:13.211Z,5.52
2023-12-17T03:03:13.274Z,5.53
2023-12-17T03:04:13.202Z,5.49
2023-12-17T03:05:13.273Z,5.33
2023-12-17T03:06:13.257Z,5.38
2023-12-17T03:07:13.196Z,5.26
2023-12-17T03:08:13.201Z,5.19
2023-12-17T03:09:13.248Z,5.14
2023-12-17T03:10:13.343Z,5.09
2023-12-17T03:11:13.202Z,5.15
2023-12-17T03:12:13.268Z,5.19
2023-12-17T03:13:13.257Z,5.02
2023-12-17T03:14:13.322Z,4.47
2023-12-17T03:15:13.447Z,4.64
2023-12-17T03:16:13.378Z,4.36
2023-12-17T03:17:13.429Z,4.33
2023-12-17T03:18:13.745Z,4.50
2023-12-17T03:19:13.485Z,4.70
2023-12-17T03:20:13.479Z,4.77
2023-12-17T03:21:13.537Z,4.89
2023-12-17T03:22:13.483Z,4.84
2023-12-17T03:23:13.502Z,4.88
2023-12-17T03:24:13.623Z,4.75
2023-12-17T03:25:14.827Z,4.78
2023-12-17T03:26:13.618Z,4.74
2023-12-17T03:27:13.678Z,4.82
2023-12-17T03:28:13.749Z,4.77
2023-12-17T03:29:13.853Z,4.94
2023-12-17T03:30:14.001Z,4.47
2023-12-17T03:31:13.961Z,4.46
2023-12-17T03:32:14.011Z,4.54
2023-12-17T03:33:14.191Z,4.07
2023-12-17T03:34:14.301Z,3.82
2023-12-17T03:35:14.191Z,3.34
2023-12-17T03:36:14.339Z,3.28
2023-12-17T03:37:14.306Z,3.30
2023-12-17T03:38:14.339Z,3.48
2023-12-17T03:39:14.449Z,3.68
2023-12-17T03:40:14.374Z,3.44
2023-12-17T03:41:14.406Z,3.50
2023-12-17T03:42:14.462Z,3.66
2023-12-17T03:43:14.465Z,3.88
2023-12-17T03:44:14.455Z,4.06
2023-12-17T03:45:14.527Z,4.14
2023-12-17T03:46:14.500Z,4.30
2023-12-17T03:47:14.511Z,4.44
2023-12-17T03:48:14.700Z,4.54
2023-12-17T03:49:14.719Z,4.61
2023-12-17T03:50:14.635Z,4.57
2023-12-17T03:51:14.703Z,4.68
2023-12-17T03:52:14.735Z,4.47
2023-12-17T03:53:14.818Z,4.63
2023-12-17T03:54:14.908Z,4.37
2023-12-17T03:55:14.959Z,4.32
2023-12-17T03:56:15.008Z,4.44
2023-12-17T03:57:15.066Z,4.63
2023-12-17T03:58:15.178Z,4.72
2023-12-17T03:59:15.082Z,4.85
2023-12-17T04:00:15.168Z,4.82
2023-12-17T04:01:15.275Z,4.88
2023-12-17T04:02:15.267Z,4.92
2023-12-17T04:03:15.306Z,4.98
2023-12-17T04:04:15.318Z,5.02
2023-12-17T04:05:15.461Z,5.09
2023-12-17T04:06:15.410Z,5.16
2023-12-17T04:07:15.365Z,5.19
2023-12-17T04:08:15.435Z,5.26
2023-12-17T04:09:15.574Z,5.32
2023-12-17T04:10:15.509Z,5.35
2023-12-17T04:11:15.510Z,5.35
2023-12-17T04:12:15.559Z,5.39
2023-12-17T04:13:15.580Z,5.39
2023-12-17T04:14:15.589Z,5.38
2023-12-17T04:15:15.649Z,5.36
2023-12-17T04:16:15.658Z,5.26
2023-12-17T04:17:15.706Z,5.25
2023-12-17T04:18:15.911Z,4.98
2023-12-17T04:19:16.006Z,4.99
2023-12-17T04:20:15.898Z,4.96
2023-12-17T04:21:16.001Z,4.96
2023-12-17T04:22:16.000Z,4.99
2023-12-17T04:23:16.051Z,4.98
2023-12-17T04:24:16.128Z,5.05
2023-12-17T04:25:16.160Z,5.02
2023-12-17T04:26:16.166Z,4.96
2023-12-17T04:27:16.261Z,4.81
2023-12-17T04:28:16.295Z,4.84
2023-12-17T04:29:16.322Z,4.70
2023-12-17T04:30:16.596Z,4.64
2023-12-17T04:31:17.340Z,4.72
2023-12-17T04:32:16.541Z,4.56
2023-12-17T04:33:16.665Z,4.53
2023-12-17T04:34:16.767Z,4.47
2023-12-17T04:35:16.686Z,4.58
2023-12-17T04:36:24.124Z,4.56
2023-12-17T04:37:24.050Z,4.48
2023-12-17T04:38:24.087Z,4.64
2023-12-17T04:39:24.243Z,4.72
2023-12-17T04:40:24.229Z,4.67
2023-12-17T04:41:24.226Z,4.68
2023-12-17T04:42:24.341Z,4.32
2023-12-17T04:43:24.257Z,4.07
2023-12-17T04:44:24.295Z,3.89
2023-12-17T04:45:24.379Z,4.00
2023-12-17T04:46:24.318Z,3.76
2023-12-17T04:47:25.164Z,3.69
2023-12-17T04:48:24.591Z,3.35
2023-12-17T04:49:24.751Z,3.37
2023-12-17T04:50:24.445Z,3.02
2023-12-17T04:51:24.491Z,3.06
2023-12-17T04:52:25.162Z,3.14
2023-12-17T04:53:24.514Z,3.24
2023-12-17T04:54:24.602Z,3.46
2023-12-17T04:55:24.563Z,3.58
2023-12-17T04:56:24.603Z,3.54
2023-12-17T04:57:24.687Z,3.35
2023-12-17T04:58:24.625Z,3.06
2023-12-17T04:59:24.654Z,2.97
2023-12-17T05:00:24.721Z,2.82
2023-12-17T05:01:24.699Z,2.76
2023-12-17T05:02:24.692Z,3.08
2023-12-17T05:03:24.773Z,3.27
2023-12-17T05:04:24.891Z,3.42
2023-12-17T05:05:25.002Z,3.44
2023-12-17T05:06:24.966Z,3.39
2023-12-17T05:07:24.950Z,3.55
2023-12-17T05:08:25.039Z,3.50
2023-12-17T05:09:25.102Z,3.42
2023-12-17T05:10:25.116Z,3.27
2023-12-17T05:11:25.141Z,3.02
2023-12-17T05:12:25.187Z,3.10
2023-12-17T05:13:25.204Z,2.89
2023-12-17T05:14:25.233Z,2.83
2023-12-17T05:15:25.426Z,2.94
2023-12-17T05:16:25.270Z,3.06
2023-12-17T05:17:25.440Z,3.07
2023-12-17T05:18:25.437Z,3.18
2023-12-17T05:19:25.554Z,3.32
2023-12-17T05:20:25.433Z,3.37
2023-12-17T05:21:25.495Z,3.41
2023-12-17T05:22:25.546Z,3.17
2023-12-17T05:23:25.626Z,3.18
2023-12-17T05:24:25.728Z,3.15
2023-12-17T05:25:25.729Z,2.89
2023-12-17T05:26:25.788Z,2.92
2023-12-17T05:27:25.884Z,3.18
2023-12-17T05:28:25.917Z,3.10
2023-12-17T05:29:25.936Z,2.92
2023-12-17T05:30:26.111Z,3.34
2023-12-17T05:31:26.071Z,2.90
2023-12-17T05:32:26.100Z,3.28
2023-12-17T05:33:26.294Z,3.32
2023-12-17T05:34:26.270Z,3.54
2023-12-17T05:35:26.202Z,3.28
2023-12-17T05:36:26.307Z,3.14
2023-12-17T05:37:26.247Z,3.00
2023-12-17T05:38:26.291Z,2.93
2023-12-17T05:39:26.484Z,3.17
2023-12-17T05:40:26.377Z,3.18
2023-12-17T05:41:26.363Z,3.08
2023-12-17T05:42:26.528Z,3.10
2023-12-17T05:43:26.467Z,3.08
2023-12-17T05:44:26.507Z,2.97
2023-12-17T05:45:26.561Z,2.94
2023-12-17T05:46:26.622Z,2.64
2023-12-17T05:47:26.647Z,2.76
2023-12-17T05:48:26.841Z,2.75
2023-12-17T05:49:26.892Z,2.64
2023-12-17T05:50:26.736Z,2.72
2023-12-17T05:51:26.815Z,2.73
2023-12-17T05:52:26.712Z,3.02
2023-12-17T05:53:30.525Z,3.10
2023-12-17T05:54:27.825Z,3.11
2023-12-17T05:55:26.766Z,3.07
2023-12-17T05:56:26.757Z,3.04
2023-12-17T05:57:26.858Z,3.30
2023-12-17T05:58:26.793Z,3.54
2023-12-17T05:59:26.760Z,3.61
2023-12-17T06:00:26.786Z,3.50
2023-12-17T06:01:26.814Z,3.41
2023-12-17T06:02:26.772Z,3.39
2023-12-17T06:03:26.833Z,3.68
2023-12-17T06:04:26.802Z,3.58
2023-12-17T06:05:26.803Z,3.41
2023-12-17T06:06:27.425Z,3.27
2023-12-17T06:07:26.776Z,3.54
2023-12-17T06:08:26.789Z,3.45
2023-12-17T06:09:26.820Z,3.64
2023-12-17T06:10:26.797Z,3.48
2023-12-17T06:11:26.805Z,3.06
2023-12-17T06:12:26.874Z,3.28
2023-12-17T06:13:26.854Z,3.07
2023-12-17T06:14:26.931Z,2.63
2023-12-17T06:15:27.066Z,2.51
2023-12-17T06:16:27.153Z,2.59
2023-12-17T06:17:27.236Z,2.08
2023-12-17T06:18:27.334Z,2.38
2023-12-17T06:19:27.386Z,2.63
2023-12-17T06:20:29.538Z,2.79
2023-12-17T06:21:27.535Z,2.69
2023-12-17T06:22:27.533Z,2.66
2023-12-17T06:23:27.580Z,2.36
2023-12-17T06:24:27.713Z,2.64
2023-12-17T06:25:27.660Z,2.79
2023-12-17T06:26:27.703Z,2.94
2023-12-17T06:27:27.777Z,2.92
2023-12-17T06:28:27.752Z,2.89
2023-12-17T06:29:27.778Z,2.87
2023-12-17T06:30:27.853Z,2.51
2023-12-17T06:31:27.871Z,2.55
2023-12-17T06:32:27.867Z,2.43
2023-12-17T06:33:27.955Z,2.49
2023-12-17T06:34:27.969Z,2.24
2023-12-17T06:35:28.002Z,2.32
2023-12-17T06:36:27.961Z,2.32
2023-12-17T06:37:27.960Z,2.31
2023-12-17T06:38:28.003Z,2.41
2023-12-17T06:39:28.054Z,2.48
2023-12-17T06:40:28.091Z,2.77
2023-12-17T06:41:28.066Z,2.43
2023-12-17T06:42:28.197Z,2.49
2023-12-17T06:43:28.133Z,2.35
2023-12-17T06:44:28.132Z,2.35
2023-12-17T06:45:28.204Z,2.31
2023-12-17T06:46:28.196Z,2.32
2023-12-17T06:47:29.060Z,2.26
2023-12-17T06:48:28.379Z,2.33
2023-12-17T06:49:28.335Z,2.41
2023-12-17T06:50:28.277Z,2.52
2023-12-17T06:51:28.427Z,2.77
2023-12-17T06:52:28.373Z,2.69
2023-12-17T06:53:28.407Z,2.86
2023-12-17T06:54:28.463Z,2.83
2023-12-17T06:55:28.430Z,2.80
2023-12-17T06:56:28.491Z,2.96
2023-12-17T06:57:28.644Z,3.00
2023-12-17T06:58:28.567Z,3.10
2023-12-17T06:59:28.624Z,3.20
2023-12-17T07:00:28.716Z,3.28
2023-12-17T07:01:28.626Z,3.48
2023-12-17T07:02:28.712Z,3.71
2023-12-17T07:03:28.731Z,3.89
2023-12-17T07:04:28.706Z,4.02
2023-12-17T07:05:28.809Z,4.16
2023-12-17T07:06:28.790Z,4.14
2023-12-17T07:07:28.848Z,4.17
2023-12-17T07:08:28.849Z,4.27
2023-12-17T07:09:28.838Z,4.40
2023-12-17T07:10:29.197Z,4.53
2023-12-17T07:11:28.880Z,4.53
2023-12-17T07:12:28.910Z,4.29
2023-12-17T07:13:28.893Z,4.50
2023-12-17T07:14:28.908Z,4.16
2023-12-17T07:15:29.071Z,4.47
2023-12-17T07:16:28.959Z,4.39
2023-12-17T07:17:29.001Z,4.35
2023-12-17T07:18:29.138Z,4.36
2023-12-17T07:19:29.079Z,4.07
2023-12-17T07:20:29.038Z,4.02
2023-12-17T07:21:29.144Z,3.72
2023-12-17T07:22:29.164Z,3.66
2023-12-17T07:23:29.236Z,3.64
2023-12-17T07:24:29.350Z,3.86
2023-12-17T07:25:29.298Z,3.75
2023-12-17T07:26:29.350Z,3.66
2023-12-17T07:27:29.439Z,3.58
2023-12-17T07:28:29.490Z,3.50
2023-12-17T07:29:29.570Z,3.45
2023-12-17T07:30:29.710Z,3.57
2023-12-17T07:31:29.735Z,3.61
2023-12-17T07:32:29.792Z,3.76
2023-12-17T07:33:29.855Z,3.62
2023-12-17T07:34:29.937Z,3.81
2023-12-17T07:35:29.851Z,4.00
2023-12-17T07:36:29.864Z,4.05
2023-12-17T07:37:29.880Z,4.36
2023-12-17T07:38:29.867Z,4.24
2023-12-17T07:39:29.949Z,4.36
2023-12-17T07:40:29.942Z,4.51
2023-12-17T07:41:29.947Z,4.39
2023-12-17T07:42:29.970Z,4.24
2023-12-17T07:43:30.011Z,4.35
2023-12-17T07:44:29.984Z,4.47
2023-12-17T07:45:30.109Z,4.51
2023-12-17T07:46:30.049Z,4.61
2023-12-17T07:47:30.125Z,4.74
2023-12-17T07:48:30.240Z,4.77
2023-12-17T07:49:30.249Z,4.89
2023-12-17T07:50:30.247Z,5.02
2023-12-17T07:51:30.333Z,5.07
2023-12-17T07:52:30.321Z,5.11
2023-12-17T07:53:30.348Z,5.30
2023-12-17T07:54:30.393Z,5.36
2023-12-17T07:55:30.387Z,5.49
2023-12-17T07:56:30.414Z,5.59
2023-12-17T07:57:30.532Z,5.63
2023-12-17T07:58:30.463Z,5.59
2023-12-17T07:59:30.521Z,5.43
2023-12-17T08:00:30.612Z,5.54
2023-12-17T08:01:30.645Z,5.61
2023-12-17T08:02:30.587Z,5.64
2023-12-17T08:03:30.750Z,5.54
2023-12-17T08:04:31.057Z,5.61
2023-12-17T08:05:30.763Z,5.23
2023-12-17T08:06:33.358Z,5.26
2023-12-17T08:07:30.815Z,5.36
2023-12-17T08:08:30.813Z,5.25
2023-12-17T08:09:30.863Z,5.12
2023-12-17T08:10:30.820Z,5.12
2023-12-17T08:11:30.833Z,5.09
2023-12-17T08:12:30.864Z,5.09
2023-12-17T08:13:30.842Z,5.22
2023-12-17T08:14:30.822Z,4.87
2023-12-17T08:15:30.860Z,4.79
2023-12-17T08:16:30.826Z,4.21
2023-12-17T08:17:30.876Z,4.21
2023-12-17T08:18:30.933Z,4.43
2023-12-17T08:19:30.828Z,4.57
2023-12-17T08:20:31.205Z,4.53
2023-12-17T08:21:30.934Z,4.06
2023-12-17T08:22:30.840Z,4.07
2023-12-17T08:23:30.834Z,4.44
2023-12-17T08:24:30.925Z,4.64
2023-12-17T08:25:30.878Z,4.79
2023-12-17T08:26:30.882Z,4.60
2023-12-17T08:27:30.893Z,4.92
2023-12-17T08:28:30.848Z,4.98
2023-12-17T08:29:30.885Z,5.18
2023-12-17T08:30:30.929Z,5.42
2023-12-17T08:31:30.861Z,5.53
2023-12-17T08:32:30.927Z,5.69
2023-12-17T08:33:30.979Z,5.77
2023-12-17T08:34:31.061Z,5.91
2023-12-17T08:35:30.885Z,6.15
2023-12-17T08:36:30.897Z,6.24
2023-12-17T08:37:30.923Z,6.21
2023-12-17T08:38:30.880Z,6.49
2023-12-17T08:39:30.903Z,6.42
2023-12-17T08:40:30.889Z,6.57
2023-12-17T08:41:30.888Z,6.49
2023-12-17T08:42:30.925Z,6.57
2023-12-17T08:43:30.873Z,6.73
2023-12-17T08:44:30.889Z,6.87
2023-12-17T08:45:31.027Z,6.86
2023-12-17T08:46:30.891Z,6.99
2023-12-17T08:47:31.045Z,7.07
2023-12-17T08:48:31.081Z,7.02
2023-12-17T08:49:30.962Z,6.96
2023-12-17T08:50:30.900Z,6.89
2023-12-17T08:51:31.051Z,7.04
2023-12-17T08:52:30.893Z,7.16
2023-12-17T08:53:30.909Z,7.26
2023-12-17T08:54:32.500Z,7.27
2023-12-17T08:55:31.215Z,7.30
2023-12-17T08:56:30.919Z,7.30
2023-12-17T08:57:31.037Z,7.30
2023-12-17T08:58:30.956Z,7.07
2023-12-17T08:59:30.917Z,7.00
2023-12-17T09:00:30.987Z,7.13
2023-12-17T09:01:30.905Z,7.24
2023-12-17T09:02:30.920Z,7.43
2023-12-17T09:03:31.003Z,7.47
2023-12-17T09:04:30.981Z,7.61
2023-12-17T09:05:30.941Z,7.50
2023-12-17T09:06:31.013Z,7.45
2023-12-17T09:07:31.007Z,7.24
2023-12-17T09:08:30.978Z,7.45
2023-12-17T09:09:31.109Z,7.54
2023-12-17T09:10:31.093Z,7.72
2023-12-17T09:11:31.087Z,7.75
2023-12-17T09:12:31.128Z,7.82
2023-12-17T09:13:31.182Z,7.93
2023-12-17T09:14:31.148Z,7.96
2023-12-17T09:15:31.235Z,7.99
2023-12-17T09:16:31.191Z,7.85
2023-12-17T09:17:31.311Z,7.84
2023-12-17T09:18:31.348Z,7.59
2023-12-17T09:19:31.385Z,7.59
2023-12-17T09:20:31.711Z,7.57
2023-12-17T09:21:31.403Z,7.27
2023-12-17T09:22:31.412Z,7.33
2023-12-17T09:23:31.413Z,7.50
2023-12-17T09:24:31.470Z,7.47
2023-12-17T09:25:31.551Z,7.51
2023-12-17T09:26:31.517Z,7.58
2023-12-17T09:27:31.603Z,7.71
2023-12-17T09:28:31.615Z,7.75
2023-12-17T09:29:31.624Z,7.99
2023-12-17T09:30:31.734Z,7.99
2023-12-17T09:31:31.721Z,8.03
2023-12-17T09:32:31.698Z,8.26
2023-12-17T09:33:31.840Z,8.22
2023-12-17T09:34:31.830Z,8.29
2023-12-17T09:35:32.769Z,8.30
2023-12-17T09:36:31.824Z,8.40
2023-12-17T09:37:31.796Z,8.57
2023-12-17T09:38:31.832Z,8.61
2023-12-17T09:39:32.017Z,8.67
2023-12-17T09:40:31.873Z,8.85
2023-12-17T09:41:31.893Z,8.63
2023-12-17T09:42:32.008Z,8.80
2023-12-17T09:43:31.938Z,8.72
2023-12-17T09:44:31.965Z,8.44
2023-12-17T09:45:32.107Z,8.70
2023-12-17T09:46:32.134Z,8.85
2023-12-17T09:47:32.210Z,8.97
2023-12-17T09:48:32.240Z,9.01
2023-12-17T09:49:32.274Z,9.08
2023-12-17T09:50:32.194Z,9.16
2023-12-17T09:51:32.429Z,9.29
2023-12-17T09:52:32.286Z,9.18
2023-12-17T09:53:33.205Z,9.18
2023-12-17T09:54:32.403Z,9.35
2023-12-17T09:55:32.374Z,9.14
2023-12-17T09:56:32.353Z,9.41
2023-12-17T09:57:32.418Z,9.52
2023-12-17T09:58:32.425Z,9.57
2023-12-17T09:59:32.470Z,9.62
2023-12-17T10:00:32.834Z,9.59
2023-12-17T10:01:32.673Z,9.46
2023-12-17T10:02:38.998Z,9.47
2023-12-17T10:03:33.746Z,9.42
2023-12-17T10:04:32.711Z,9.22
2023-12-17T10:05:32.711Z,9.32
2023-12-17T10:06:34.241Z,9.32
2023-12-17T10:07:32.704Z,9.33
2023-12-17T10:08:32.683Z,9.36
2023-12-17T10:09:32.800Z,9.32
2023-12-17T10:10:32.721Z,8.65
2023-12-17T10:11:32.713Z,8.81
2023-12-17T10:12:32.751Z,8.94
2023-12-17T10:13:32.690Z,8.75
2023-12-17T10:14:32.687Z,8.26
2023-12-17T10:15:32.699Z,8.64
2023-12-17T10:16:32.677Z,8.75
2023-12-17T10:17:32.813Z,8.59
2023-12-17T10:18:32.800Z,8.54
2023-12-17T10:19:32.805Z,8.64
2023-12-17T10:20:32.698Z,8.56
2023-12-17T10:21:32.771Z,8.44
2023-12-17T10:22:32.730Z,8.85
2023-12-17T10:23:32.743Z,8.47
2023-12-17T10:24:32.749Z,8.77
2023-12-17T10:25:32.756Z,8.78
2023-12-17T10:26:32.704Z,8.82
2023-12-17T10:27:32.806Z,9.08
2023-12-17T10:28:32.736Z,9.18
2023-12-17T10:29:32.714Z,9.29
2023-12-17T10:30:32.830Z,9.36
2023-12-17T10:31:32.750Z,9.45
2023-12-17T10:32:32.817Z,9.36
2023-12-17T10:33:32.903Z,9.36
2023-12-17T10:34:32.930Z,8.92
2023-12-17T10:35:32.862Z,8.88
2023-12-17T10:36:32.757Z,9.19
2023-12-17T10:37:32.723Z,8.74
2023-12-17T10:38:32.722Z,9.01
2023-12-17T10:39:32.753Z,8.78
2023-12-17T10:40:32.760Z,8.80
2023-12-17T10:41:32.747Z,8.41
2023-12-17T10:42:32.803Z,8.47
2023-12-17T10:43:32.766Z,8.25
2023-12-17T10:44:32.739Z,8.27
2023-12-17T10:45:33.300Z,8.61
2023-12-17T10:46:32.765Z,8.23
2023-12-17T10:47:32.827Z,8.63
2023-12-17T10:48:32.795Z,8.57
2023-12-17T10:49:32.950Z,8.64
2023-12-17T10:50:32.788Z,8.61
2023-12-17T10:51:32.805Z,8.64
2023-12-17T10:52:32.776Z,8.81
2023-12-17T10:53:32.786Z,9.21
2023-12-17T10:54:32.799Z,8.84
2023-12-17T10:55:33.385Z,8.91
2023-12-17T10:56:32.758Z,9.25
2023-12-17T10:57:32.815Z,9.42
2023-12-17T10:58:32.771Z,9.25
2023-12-17T10:59:38.018Z,9.18
2023-12-17T11:00:33.805Z,9.62
2023-12-17T11:01:32.822Z,9.67
2023-12-17T11:02:32.824Z,9.54
2023-12-17T11:03:32.853Z,9.52
2023-12-17T11:04:32.864Z,9.63
2023-12-17T11:05:32.859Z,9.72
2023-12-17T11:06:32.822Z,9.97
2023-12-17T11:07:38.062Z,9.92
2023-12-17T11:08:33.791Z,9.80
2023-12-17T11:09:32.821Z,10.01
2023-12-17T11:10:32.814Z,9.66
2023-12-17T11:11:32.779Z,9.89
2023-12-17T11:12:32.834Z,10.18
2023-12-17T11:13:32.849Z,10.25
2023-12-17T11:14:32.789Z,10.08
2023-12-17T11:15:32.881Z,9.86
2023-12-17T11:16:32.815Z,10.20
2023-12-17T11:17:32.909Z,10.13
2023-12-17T11:18:33.802Z,10.34
2023-12-17T11:19:32.859Z,10.31
2023-12-17T11:20:32.806Z,10.54
2023-12-17T11:21:32.904Z,9.82
2023-12-17T11:22:32.925Z,10.08
2023-12-17T11:23:32.997Z,10.17
2023-12-17T11:24:33.124Z,10.18
2023-12-17T11:25:33.290Z,10.17
2023-12-17T11:26:33.209Z,9.80
2023-12-17T11:27:35.768Z,9.94
2023-12-17T11:28:33.223Z,9.97
2023-12-17T11:29:33.227Z,9.83
2023-12-17T11:30:33.559Z,9.82
2023-12-17T11:31:33.281Z,9.98
2023-12-17T11:32:33.246Z,9.98
2023-12-17T11:33:33.415Z,10.15
2023-12-17T11:34:33.383Z,10.20
2023-12-17T11:35:33.253Z,10.21
2023-12-17T11:36:33.297Z,10.35
2023-12-17T11:37:33.256Z,10.20
2023-12-17T11:38:33.256Z,10.24
2023-12-17T11:39:33.316Z,10.38
2023-12-17T11:40:33.265Z,10.40
2023-12-17T11:41:33.255Z,10.65
2023-12-17T11:42:33.356Z,10.61
2023-12-17T11:43:33.279Z,10.64
2023-12-17T11:44:33.297Z,10.61
2023-12-17T11:45:33.349Z,10.54
2023-12-17T11:46:33.271Z,10.64
2023-12-17T11:47:33.294Z,10.25
2023-12-17T11:48:33.434Z,10.10
2023-12-17T11:49:33.368Z,9.92
2023-12-17T11:50:33.284Z,10.00
2023-12-17T11:51:33.360Z,10.03
2023-12-17T11:52:33.291Z,10.05
2023-12-17T11:53:33.270Z,10.20
2023-12-17T11:54:33.367Z,10.54
2023-12-17T11:55:33.291Z,10.69
2023-12-17T11:56:33.304Z,10.71
2023-12-17T11:57:33.388Z,11.02
2023-12-17T11:58:33.300Z,11.13
2023-12-17T11:59:33.342Z,11.10
2023-12-17T12:00:33.492Z,11.30
2023-12-17T12:01:33.350Z,11.27
2023-12-17T12:02:33.311Z,11.34
2023-12-17T12:03:33.481Z,11.43
2023-12-17T12:04:33.310Z,11.10
2023-12-17T12:05:33.337Z,11.34
2023-12-17T12:06:33.305Z,11.43
2023-12-17T12:07:33.315Z,11.19
2023-12-17T12:08:33.315Z,11.41
2023-12-17T12:09:33.439Z,11.64
2023-12-17T12:10:33.320Z,11.81
2023-12-17T12:11:33.350Z,11.95
2023-12-17T12:12:33.419Z,12.08
2023-12-17T12:13:33.372Z,12.22
2023-12-17T12:14:33.402Z,12.32
2023-12-17T12:15:35.397Z,12.43
2023-12-17T12:16:33.487Z,12.50
2023-12-17T12:17:33.628Z,12.53
2023-12-17T12:18:33.714Z,12.53
2023-12-17T12:19:33.746Z,12.18
2023-12-17T12:20:33.743Z,12.32
2023-12-17T12:21:34.069Z,12.19
2023-12-17T12:22:33.749Z,12.35
2023-12-17T12:23:33.803Z,12.39
2023-12-17T12:24:33.910Z,12.48
2023-12-17T12:25:33.916Z,12.57
2023-12-17T12:26:33.954Z,12.67
2023-12-17T12:27:34.040Z,12.63
2023-12-17T12:28:34.025Z,12.72
2023-12-17T12:29:34.031Z,12.56
2023-12-17T12:30:34.334Z,12.69
2023-12-17T12:31:34.225Z,12.60
2023-12-17T12:32:34.218Z,12.04
2023-12-17T12:33:34.608Z,12.19
2023-12-17T12:34:34.552Z,12.31
2023-12-17T12:35:34.330Z,12.50
2023-12-17T12:36:34.482Z,12.46
2023-12-17T12:37:34.422Z,12.46
2023-12-17T12:38:34.477Z,12.22
2023-12-17T12:39:45.287Z,12.01
2023-12-17T12:40:35.561Z,12.02
2023-12-17T12:41:34.558Z,12.22
2023-12-17T12:42:34.658Z,12.08
2023-12-17T12:43:34.551Z,12.02
2023-12-17T12:44:34.518Z,12.18
2023-12-17T12:45:34.621Z,12.06
2023-12-17T12:46:34.551Z,12.02
2023-12-17T12:47:34.705Z,12.17
2023-12-17T12:48:34.640Z,12.26
2023-12-17T12:49:34.696Z,12.35
2023-12-17T12:50:34.549Z,12.43
2023-12-17T12:51:34.579Z,12.60
2023-12-17T12:52:34.545Z,12.66
2023-12-17T12:53:34.592Z,12.70
2023-12-17T12:54:34.627Z,12.83
2023-12-17T12:55:34.625Z,12.82
2023-12-17T12:56:34.649Z,12.80
2023-12-17T12:57:35.028Z,12.94
2023-12-17T12:58:34.741Z,13.00
2023-12-17T12:59:34.811Z,13.08
2023-12-17T13:00:34.901Z,13.08
2023-12-17T13:01:34.942Z,13.20
2023-12-17T13:02:34.940Z,13.24
2023-12-17T13:03:35.034Z,13.33
2023-12-17T13:04:34.990Z,13.24
2023-12-17T13:05:35.051Z,13.30
2023-12-17T13:06:35.201Z,13.33
2023-12-17T13:07:35.105Z,13.27
2023-12-17T13:08:35.123Z,13.20
2023-12-17T13:09:35.201Z,13.25
2023-12-17T13:10:35.156Z,12.99
2023-12-17T13:11:35.209Z,12.70
2023-12-17T13:12:35.321Z,12.66
2023-12-17T13:13:35.318Z,12.40
2023-12-17T13:14:35.385Z,12.48
2023-12-17T13:15:35.815Z,12.31